Time;durP1;ratioP1;P1;durP2;ratioP2;P2;SDS_P1;SDS_P2;PMS_P1;PMS_P2;Temp;Humidity;BMP_temperature;BMP_pressure;BME280_temperature;BME280_humidity;BME280_pressure;Samples;Min_cycle;Max_cycle;Signal;HPM_P1;HPM_P2
2022/06/03 00:00:03;;;;;;;12.07;7.82;;;13.00;99.90;;;;;;5096286;28;20020;-55
2022/06/03 00:02:46;;;;;;;14.07;8.10;;;13.00;99.90;;;;;;5097499;28;20020;-55
2022/06/03 00:05:53;;;;;;;13.05;8.27;;;13.00;99.90;;;;;;5104421;28;20019;-55
2022/06/03 00:09:00;;;;;;;11.15;7.45;;;12.90;99.90;;;;;;5103914;28;20051;-55
2022/06/03 00:11:41;;;;;;;13.63;8.30;;;12.90;99.90;;;;;;5099740;28;20122;-55
2022/06/03 00:14:12;;;;;;;13.30;7.68;;;12.90;99.90;;;;;;5108868;28;20057;-55
2022/06/03 00:16:46;;;;;;;13.43;7.97;;;13.10;99.90;;;;;;5108838;28;20054;-58
2022/06/03 00:19:27;;;;;;;13.88;8.30;;;13.10;99.90;;;;;;5108865;28;20024;-55
2022/06/03 00:22:20;;;;;;;18.10;8.48;;;13.00;99.90;;;;;;5109622;28;20031;-55
2022/06/03 00:24:46;;;;;;;11.95;8.25;;;12.80;99.90;;;;;;5109531;28;20106;-55
2022/06/03 00:27:29;;;;;;;12.85;7.35;;;12.80;99.90;;;;;;5107946;28;20118;-55
2022/06/03 00:30:27;;;;;;;11.88;7.22;;;12.90;99.90;;;;;;5109442;28;20019;-55
2022/06/03 00:33:22;;;;;;;14.13;6.88;;;12.60;99.90;;;;;;5105981;28;20070;-55
2022/06/03 00:36:26;;;;;;;12.70;7.78;;;12.70;99.90;;;;;;5108458;28;20121;-55
2022/06/03 00:39:03;;;;;;;15.65;7.28;;;12.70;99.90;;;;;;5083919;28;20039;-55
2022/06/03 00:41:51;;;;;;;12.52;7.68;;;12.70;99.90;;;;;;5108536;28;20023;-55
2022/06/03 00:44:44;;;;;;;13.50;7.57;;;12.80;99.90;;;;;;5109568;27;20046;-55
2022/06/03 00:47:31;;;;;;;14.95;6.78;;;12.40;99.90;;;;;;5109132;28;20024;-55
2022/06/03 00:50:28;;;;;;;12.18;7.07;;;12.60;99.90;;;;;;5108899;28;20024;-55
2022/06/03 00:53:22;;;;;;;14.23;7.10;;;12.60;99.90;;;;;;5108841;28;20035;-55
2022/06/03 00:56:13;;;;;;;15.02;8.15;;;12.50;99.90;;;;;;5108995;28;20467;-56
2022/06/03 00:58:45;;;;;;;13.02;7.82;;;12.50;99.90;;;;;;5108592;28;20490;-55
2022/06/03 01:01:47;;;;;;;12.18;7.15;;;12.60;99.90;;;;;;5108819;28;20032;-55
2022/06/03 01:04:41;;;;;;;15.48;8.30;;;12.40;99.90;;;;;;5102295;28;20031;-56
2022/06/03 01:07:48;;;;;;;13.95;7.63;;;12.30;99.90;;;;;;5065893;28;20144;-55
2022/06/03 01:10:23;;;;;;;10.38;7.32;;;12.10;99.90;;;;;;5068688;28;20059;-55
2022/06/03 01:12:57;;;;;;;16.95;8.75;;;12.10;99.90;;;;;;5068576;28;20029;-55
2022/06/03 01:15:40;;;;;;;15.30;7.85;;;11.90;99.90;;;;;;5068832;28;20036;-55
2022/06/03 01:18:23;;;;;;;12.65;7.70;;;12.10;99.90;;;;;;5068365;28;20025;-55
2022/06/03 01:21:06;;;;;;;11.70;8.20;;;12.00;99.90;;;;;;5068625;28;20071;-55
2022/06/03 01:23:59;;;;;;;16.35;8.45;;;11.90;99.90;;;;;;5068337;28;20102;-56
2022/06/03 01:26:37;;;;;;;17.73;8.40;;;11.90;99.90;;;;;;5067884;28;20089;-55
2022/06/03 01:29:39;;;;;;;13.10;7.47;;;11.90;99.90;;;;;;5067553;28;20048;-56
2022/06/03 01:32:36;;;;;;;15.07;8.43;;;11.80;99.90;;;;;;5068272;28;20028;-55
2022/06/03 01:35:24;;;;;;;14.52;8.48;;;11.80;99.90;;;;;;5068607;28;20537;-55
2022/06/03 01:37:54;;;;;;;13.70;8.43;;;11.80;99.90;;;;;;5068249;28;20127;-55
2022/06/03 01:40:26;;;;;;;15.65;9.73;;;11.70;99.90;;;;;;5068088;28;20671;-55
2022/06/03 01:43:16;;;;;;;17.63;9.75;;;11.60;99.90;;;;;;5068403;28;20545;-55
2022/06/03 01:46:00;;;;;;;16.95;9.18;;;11.50;99.90;;;;;;5068351;28;20020;-55
2022/06/03 01:48:56;;;;;;;14.88;9.38;;;11.50;99.90;;;;;;5067894;28;20116;-55
2022/06/03 01:51:46;;;;;;;18.10;8.77;;;11.50;99.90;;;;;;5072360;28;20035;-55
2022/06/03 01:54:27;;;;;;;19.55;10.07;;;11.60;99.90;;;;;;5072219;28;20024;-55
2022/06/03 01:57:13;;;;;;;20.73;10.63;;;11.60;99.90;;;;;;5072216;28;20013;-55
2022/06/03 02:00:07;;;;;;;21.50;11.70;;;11.40;99.90;;;;;;5072170;28;20035;-55
2022/06/03 02:02:44;;;;;;;18.90;11.43;;;11.50;99.90;;;;;;5071916;28;20028;-55
2022/06/03 02:05:25;;;;;;;18.90;10.55;;;11.50;99.90;;;;;;5092206;28;20060;-55
2022/06/03 02:08:09;;;;;;;17.88;11.20;;;11.60;99.90;;;;;;5112481;28;20028;-55
2022/06/03 02:10:58;;;;;;;16.02;9.82;;;11.70;99.90;;;;;;5112368;28;20537;-55
2022/06/03 02:13:55;;;;;;;13.48;9.35;;;11.70;99.90;;;;;;5106173;28;20040;-55
2022/06/03 02:16:43;;;;;;;13.30;7.90;;;11.70;99.90;;;;;;5112248;28;20490;-55
2022/06/03 02:19:40;;;;;;;10.88;7.43;;;11.60;99.90;;;;;;5112053;28;20035;-55
2022/06/03 02:22:23;;;;;;;13.70;7.93;;;11.50;99.90;;;;;;5111718;28;20031;-55
2022/06/03 02:25:04;;;;;;;14.10;7.22;;;11.40;99.90;;;;;;5111924;27;20046;-55
2022/06/03 02:27:32;;;;;;;13.55;7.90;;;11.40;99.90;;;;;;5111791;28;20020;-55
2022/06/03 02:30:30;;;;;;;15.38;7.22;;;11.30;99.90;;;;;;5111725;28;20055;-55
2022/06/03 02:33:27;;;;;;;14.43;7.15;;;11.30;99.90;;;;;;5073842;28;20048;-55
2022/06/03 02:36:11;;;;;;;15.10;7.88;;;11.20;99.90;;;;;;5112002;27;20020;-56
2022/06/03 02:38:58;;;;;;;16.52;8.52;;;11.10;99.90;;;;;;5111734;28;20596;-55
2022/06/03 02:42:01;;;;;;;13.38;7.93;;;11.00;99.90;;;;;;5112203;28;20019;-55
2022/06/03 02:44:41;;;;;;;14.48;8.70;;;11.00;99.90;;;;;;5111724;28;20019;-55
2022/06/03 02:47:32;;;;;;;13.65;8.40;;;11.00;99.90;;;;;;5110823;28;20107;-55
2022/06/03 02:50:00;;;;;;;14.85;7.50;;;11.00;99.90;;;;;;5110985;28;20091;-55
2022/06/03 02:52:55;;;;;;;17.90;8.02;;;11.00;99.90;;;;;;5110746;28;20046;-55
2022/06/03 02:55:39;;;;;;;15.85;7.93;;;11.10;99.90;;;;;;5111350;28;20027;-55
2022/06/03 02:58:39;;;;;;;13.10;7.38;;;10.90;99.90;;;;;;5111522;28;20024;-55
2022/06/03 03:01:26;;;;;;;13.45;7.30;;;10.70;99.90;;;;;;5110995;28;20042;-55
2022/06/03 03:04:31;;;;;;;13.70;7.00;;;10.70;99.90;;;;;;5111360;28;20023;-55
2022/06/03 03:07:21;;;;;;;12.98;7.35;;;10.80;99.90;;;;;;5070646;28;20701;-56
2022/06/03 03:10:09;;;;;;;15.45;8.60;;;10.70;99.90;;;;;;5070387;28;20074;-56
2022/06/03 03:12:50;;;;;;;11.38;7.32;;;10.70;99.90;;;;;;5070849;28;20021;-56
2022/06/03 03:15:22;;;;;;;13.98;8.27;;;10.80;99.90;;;;;;5070671;28;20028;-55
2022/06/03 03:18:09;;;;;;;15.10;7.18;;;10.60;99.90;;;;;;5070605;28;20033;-55
2022/06/03 03:21:12;;;;;;;13.13;6.97;;;10.70;99.90;;;;;;5070746;28;20025;-55
2022/06/03 03:23:52;;;;;;;13.32;7.38;;;10.80;99.90;;;;;;5070582;28;20017;-55
2022/06/03 03:26:40;;;;;;;11.60;7.28;;;10.70;99.90;;;;;;5070508;28;20098;-55
2022/06/03 03:29:17;;;;;;;12.70;7.10;;;10.70;99.90;;;;;;5070414;28;20091;-55
2022/06/03 03:31:51;;;;;;;15.05;7.65;;;10.70;99.90;;;;;;5070171;28;20064;-55
2022/06/03 03:34:42;;;;;;;15.20;7.50;;;10.70;99.90;;;;;;5070215;28;20035;-55
2022/06/03 03:37:44;;;;;;;13.07;7.22;;;10.70;99.90;;;;;;5070196;28;20029;-56
2022/06/03 03:40:39;;;;;;;12.45;6.88;;;10.70;99.90;;;;;;5070104;28;20060;-55
2022/06/03 03:43:24;;;;;;;15.95;7.65;;;10.70;99.90;;;;;;5069071;28;20082;-55
2022/06/03 03:46:19;;;;;;;14.50;7.50;;;10.80;99.90;;;;;;5070063;28;20059;-55
2022/06/03 03:48:53;;;;;;;18.92;6.68;;;10.80;99.90;;;;;;5060427;28;20049;-55
2022/06/03 03:51:38;;;;;;;11.02;6.38;;;11.00;99.90;;;;;;5069712;28;20677;-55
2022/06/03 03:54:09;;;;;;;14.02;5.65;;;11.00;99.90;;;;;;5069738;28;20048;-55
2022/06/03 03:57:12;;;;;;;9.40;5.90;;;11.10;99.90;;;;;;5069928;28;20487;-55
2022/06/03 03:59:50;;;;;;;14.90;6.32;;;11.20;99.90;;;;;;5069673;28;20083;-56
2022/06/03 04:02:33;;;;;;;9.68;5.13;;;11.30;99.90;;;;;;5069781;28;20476;-55
2022/06/03 04:05:17;;;;;;;10.52;5.75;;;11.40;99.90;;;;;;5085565;28;20038;-55
2022/06/03 04:08:01;;;;;;;9.77;5.53;;;11.40;99.90;;;;;;5109885;28;20043;-55
2022/06/03 04:10:44;;;;;;;12.90;5.35;;;11.50;99.90;;;;;;5109972;28;20100;-55
2022/06/03 04:13:42;;;;;;;8.82;4.88;;;11.60;99.90;;;;;;5109119;28;20027;-56
2022/06/03 04:16:30;;;;;;;13.73;5.80;;;11.70;99.90;;;;;;5110088;28;20151;-55
2022/06/03 04:19:21;;;;;;;11.07;4.72;;;11.80;99.90;;;;;;5110013;28;20047;-55
2022/06/03 04:22:14;;;;;;;14.63;5.65;;;11.90;99.90;;;;;;5109487;28;20024;-55
2022/06/03 04:25:18;;;;;;;10.98;5.18;;;12.00;99.90;;;;;;5109098;28;20546;-56
2022/06/03 04:28:06;;;;;;;11.80;5.57;;;12.10;99.90;;;;;;5109801;28;20079;-55
2022/06/03 04:30:56;;;;;;;24.77;13.03;;;12.20;99.90;;;;;;5109655;28;20498;-56
2022/06/03 04:33:56;;;;;;;16.58;8.05;;;12.30;99.90;;;;;;5109513;28;20063;-56
2022/06/03 04:36:36;;;;;;;12.05;7.10;;;12.40;99.90;;;;;;5109431;28;20051;-56
2022/06/03 04:39:05;;;;;;;9.43;5.82;;;12.40;99.90;;;;;;5109213;28;20089;-56
2022/06/03 04:42:08;;;;;;;12.00;5.25;;;12.50;99.90;;;;;;5109387;28;20027;-56
2022/06/03 04:45:11;;;;;;;11.80;5.80;;;12.70;99.90;;;;;;5109781;27;20028;-56
2022/06/03 04:47:48;;;;;;;12.52;5.50;;;12.80;99.90;;;;;;5108599;28;20035;-55
2022/06/03 04:50:55;;;;;;;13.27;4.95;;;12.90;99.90;;;;;;5108617;28;20024;-56
2022/06/03 04:53:35;;;;;;;8.73;4.45;;;13.10;99.90;;;;;;5109043;28;20672;-56
2022/06/03 04:56:31;;;;;;;5.60;4.10;;;13.20;99.90;;;;;;5109044;28;20106;-56
2022/06/03 04:59:05;;;;;;;7.63;3.40;;;13.30;99.90;;;;;;5109158;28;20463;-56
2022/06/03 05:02:08;;;;;;;5.28;3.35;;;13.40;99.90;;;;;;5109099;28;20035;-56
2022/06/03 05:04:51;;;;;;;6.70;3.63;;;13.50;99.90;;;;;;5105108;28;20035;-56
2022/06/03 05:07:35;;;;;;;7.32;3.38;;;13.60;99.90;;;;;;5088555;28;20602;-56
2022/06/03 05:10:57;;;;;;;7.85;3.55;;;13.80;99.90;;;;;;5088572;28;20417;-56
2022/06/03 05:14:01;;;;;;;4.95;2.83;;;13.90;99.90;;;;;;5065489;28;20063;-56
2022/06/03 05:16:51;;;;;;;6.57;3.65;;;14.00;99.90;;;;;;5045257;28;20024;-55
2022/06/03 05:19:55;;;;;;;7.28;3.30;;;14.10;99.90;;;;;;5089590;28;20024;-56
2022/06/03 05:22:36;;;;;;;7.78;3.30;;;14.20;99.90;;;;;;5088497;28;20490;-56
2022/06/03 05:25:23;;;;;;;4.47;2.97;;;14.30;99.90;;;;;;5088580;28;20020;-56
2022/06/03 05:27:58;;;;;;;6.88;3.22;;;14.40;99.90;;;;;;5088339;28;20047;-55
2022/06/03 05:30:32;;;;;;;6.72;3.10;;;14.50;99.90;;;;;;5088393;28;20036;-56
2022/06/03 05:33:06;;;;;;;4.57;3.05;;;14.60;99.90;;;;;;5088509;28;20099;-56
2022/06/03 05:35:44;;;;;;;3.35;2.35;;;14.70;99.90;;;;;;5088205;28;20035;-56
2022/06/03 05:38:28;;;;;;;5.90;2.60;;;14.80;99.90;;;;;;5087997;28;20084;-56
2022/06/03 05:42:23;;;;;;;4.38;2.33;;;15.00;99.90;;;;;;5088330;28;20078;-56
2022/06/03 05:44:10;;;;;;;6.63;2.20;;;15.10;99.90;;;;;;5088018;28;20024;-56
2022/06/03 05:46:44;;;;;;;4.20;2.47;;;15.10;99.90;;;;;;5088311;28;20065;-56
2022/06/03 05:49:48;;;;;;;4.90;2.30;;;15.20;99.90;;;;;;5088037;28;20067;-56
2022/06/03 05:52:32;;;;;;;5.57;2.30;;;15.30;99.90;;;;;;5077293;28;20472;-56
2022/06/03 05:55:15;;;;;;;5.82;2.20;;;15.40;99.90;;;;;;5088388;28;20028;-56
2022/06/03 05:58:00;;;;;;;12.13;4.80;;;15.60;99.90;;;;;;5088084;28;20024;-56
2022/06/03 06:00:32;;;;;;;21.02;5.45;;;15.60;99.90;;;;;;5088173;28;20023;-56
2022/06/03 06:03:06;;;;;;;9.98;2.45;;;15.70;99.90;;;;;;5088085;28;20082;-55
2022/06/03 06:05:40;;;;;;;7.43;2.80;;;15.90;99.90;;;;;;5099827;28;20540;-56
2022/06/03 06:08:34;;;;;;;12.50;2.65;;;15.90;99.90;;;;;;5108436;28;20104;-56
2022/06/03 06:11:19;;;;;;;25.60;5.13;;;16.00;99.90;;;;;;5108319;28;20023;-56
2022/06/03 06:14:12;;;;;;;5.00;2.45;;;16.10;99.90;;;;;;5094608;28;20031;-56
2022/06/03 06:16:42;;;;;;;8.13;3.45;;;16.20;99.90;;;;;;5095185;28;20518;-56
2022/06/03 06:19:37;;;;;;;7.18;2.83;;;16.40;99.90;;;;;;5093012;28;20131;-56
2022/06/03 06:22:20;;;;;;;28.75;3.75;;;16.40;99.90;;;;;;5091933;28;20146;-56
2022/06/03 06:24:56;;;;;;;17.05;3.13;;;16.60;99.90;;;;;;5079719;28;20033;-56
2022/06/03 06:28:00;;;;;;;5.57;2.58;;;16.70;99.90;;;;;;5092610;28;20030;-56
2022/06/03 06:30:51;;;;;;;6.85;2.65;;;16.70;99.90;;;;;;5103506;28;20043;-60
2022/06/03 06:33:42;;;;;;;7.55;4.05;;;16.80;99.90;;;;;;5097588;28;20032;-58
2022/06/03 06:36:26;;;;;;;7.30;2.58;;;17.00;99.90;;;;;;5088180;28;20059;-56
2022/06/03 06:39:01;;;;;;;47.63;32.15;;;17.00;99.90;;;;;;5092781;28;20054;-57
2022/06/03 06:41:55;;;;;;;7.35;4.07;;;17.20;99.90;;;;;;5102419;28;20024;-55
2022/06/03 06:44:24;;;;;;;518.78;407.52;;;17.30;99.90;;;;;;5102700;28;20012;-55
2022/06/03 06:47:14;;;;;;;11.77;8.73;;;17.60;99.90;;;;;;5099863;28;20105;-55
2022/06/03 06:49:49;;;;;;;7.85;3.13;;;17.50;99.90;;;;;;5102640;28;20036;-58
2022/06/03 06:52:32;;;;;;;3.72;2.40;;;17.60;99.90;;;;;;5100691;28;20070;-56
2022/06/03 06:55:08;;;;;;;5.47;2.13;;;17.60;99.90;;;;;;5101832;28;20028;-57
2022/06/03 06:57:44;;;;;;;11.07;2.88;;;17.70;99.90;;;;;;5100396;28;20376;-56
2022/06/03 07:00:42;;;;;;;5.28;2.60;;;17.70;99.90;;;;;;5099291;28;20031;-57
2022/06/03 07:03:38;;;;;;;4.68;2.35;;;17.90;99.90;;;;;;5090081;28;20044;-56
2022/06/03 07:06:12;;;;;;;7.50;3.70;;;18.00;99.90;;;;;;5102819;28;20479;-56
2022/06/03 07:09:01;;;;;;;15.73;3.75;;;18.10;99.90;;;;;;5101043;28;20411;-57
2022/06/03 07:11:45;;;;;;;4.55;2.47;;;18.30;99.90;;;;;;5072830;28;20055;-57
2022/06/03 07:14:26;;;;;;;5.82;2.13;;;18.50;99.90;;;;;;5072008;28;20035;-55
2022/06/03 07:20:01;;;;;;;4.47;2.72;;;18.50;99.90;;;;;;5072087;28;20035;-58
2022/06/03 07:22:38;;;;;;;7.18;2.53;;;18.50;99.90;;;;;;5091318;28;20027;-56
2022/06/03 07:25:31;;;;;;;7.20;2.50;;;18.50;99.90;;;;;;5100020;28;20027;-56
2022/06/03 07:28:25;;;;;;;5.07;2.70;;;18.60;99.90;;;;;;5102536;28;20028;-56
2022/06/03 07:31:21;;;;;;;6.20;2.50;;;18.60;99.90;;;;;;5095104;28;20104;-56
2022/06/03 07:34:19;;;;;;;10.82;2.00;;;19.00;99.90;;;;;;5092167;28;20196;-56
2022/06/03 07:37:09;;;;;;;9.50;2.28;;;19.00;99.90;;;;;;5090153;28;20113;-56
2022/06/03 07:40:10;;;;;;;10.10;2.05;;;19.20;99.90;;;;;;5092014;28;20044;-56
2022/06/03 07:42:41;;;;;;;4.40;2.42;;;19.10;97.10;;;;;;5091275;28;20032;-58
2022/06/03 07:45:26;;;;;;;4.47;2.15;;;19.10;99.90;;;;;;5091754;28;20050;-56
2022/06/03 07:47:54;;;;;;;3.50;2.20;;;19.20;99.10;;;;;;5091833;28;20364;-56
2022/06/03 07:50:21;;;;;;;10.60;3.53;;;19.70;99.90;;;;;;5091662;28;20024;-57
2022/06/03 07:53:05;;;;;;;10.32;4.15;;;19.70;99.90;;;;;;5091474;28;20028;-56
2022/06/03 07:55:31;;;;;;;3.08;1.80;;;19.70;99.90;;;;;;5091532;28;20032;-56
2022/06/03 07:58:04;;;;;;;7.50;2.78;;;19.70;95.10;;;;;;5090867;28;20250;-56
2022/06/03 08:00:37;;;;;;;25.85;4.38;;;19.60;97.80;;;;;;5089627;28;20103;-56
2022/06/03 08:03:12;;;;;;;12.32;4.10;;;19.90;99.90;;;;;;5093051;28;20032;-57
2022/06/03 08:05:38;;;;;;;11.45;2.80;;;20.10;99.80;;;;;;5093149;28;20115;-59
2022/06/03 08:11:00;;;;;;;11.45;3.05;;;20.30;96.30;;;;;;5093953;28;20035;-58
2022/06/03 08:13:27;;;;;;;11.48;3.55;;;20.40;97.50;;;;;;5102182;28;20076;-58
2022/06/03 08:15:53;;;;;;;;;;;20.50;95.20;;;;;;5097912;28;20344;-57
2022/06/03 08:18:21;;;;;;;5.85;2.55;;;20.60;94.30;;;;;;5101003;28;20403;-56
2022/06/03 08:20:53;;;;;;;4.90;2.35;;;20.60;95.30;;;;;;5101778;28;20080;-56
2022/06/03 08:23:20;;;;;;;3.95;2.17;;;21.00;95.20;;;;;;5098215;28;20031;-56
2022/06/03 08:25:51;;;;;;;4.88;2.47;;;20.70;90.30;;;;;;5099058;28;20055;-58
2022/06/03 08:28:22;;;;;;;5.00;2.40;;;20.70;91.50;;;;;;5070435;28;20041;-57
2022/06/03 08:30:50;;;;;;;7.82;2.40;;;20.80;92.90;;;;;;5088163;28;20499;-56
2022/06/03 08:33:25;;;;;;;6.68;2.25;;;21.00;93.60;;;;;;5090787;28;20028;-57
2022/06/03 08:35:51;;;;;;;3.55;2.05;;;21.30;90.70;;;;;;5088438;28;20111;-57
2022/06/03 08:38:24;;;;;;;5.85;1.98;;;21.30;90.40;;;;;;5067975;28;20166;-57
2022/06/03 08:41:20;;;;;;;12.48;2.80;;;21.50;89.50;;;;;;5068887;28;20028;-58
2022/06/03 08:43:49;;;;;;;4.80;2.35;;;21.60;90.00;;;;;;5066952;28;20043;-57
2022/06/03 08:46:24;;;;;;;4.22;2.50;;;21.60;87.60;;;;;;5068725;28;20017;-57
2022/06/03 08:48:52;;;;;;;4.93;1.92;;;21.70;88.90;;;;;;5068449;28;20032;-57
2022/06/03 08:51:38;;;;;;;5.95;1.70;;;21.60;81.20;;;;;;5068366;28;20495;-57
2022/06/03 08:54:30;;;;;;;6.53;2.13;;;21.50;73.40;;;;;;5068305;28;20361;-57
2022/06/03 08:57:23;;;;;;;6.70;1.85;;;21.30;72.60;;;;;;5068371;28;20020;-57
2022/06/03 08:59:55;;;;;;;4.10;2.33;;;21.40;77.10;;;;;;5060573;28;20040;-57
2022/06/03 09:02:38;;;;;;;7.50;2.20;;;21.50;78.50;;;;;;5068582;28;20078;-57
2022/06/03 09:05:10;;;;;;;10.90;2.63;;;22.00;84.10;;;;;;5067077;28;20032;-57
2022/06/03 09:07:49;;;;;;;4.80;2.58;;;22.10;76.80;;;;;;5068690;28;20484;-57
2022/06/03 09:10:53;;;;;;;9.13;2.60;;;22.20;77.20;;;;;;5070060;28;20039;-57
2022/06/03 09:13:48;;;;;;;4.15;2.13;;;22.20;78.70;;;;;;5027492;28;20317;-57
2022/06/03 09:16:17;;;;;;;3.85;2.15;;;22.20;76.10;;;;;;5069846;28;20373;-57
2022/06/03 09:19:12;;;;;;;3.55;2.00;;;22.30;68.80;;;;;;5070034;28;20031;-57
2022/06/03 09:21:41;;;;;;;7.10;1.98;;;22.20;69.90;;;;;;5069999;28;20483;-58
2022/06/03 09:24:08;;;;;;;13.52;2.10;;;22.30;75.40;;;;;;5069768;28;20044;-57
2022/06/03 09:26:40;;;;;;;10.48;3.05;;;22.50;74.90;;;;;;5081960;28;20027;-57
2022/06/03 09:29:11;;;;;;;2.67;1.90;;;22.60;75.70;;;;;;5110358;28;20067;-57
2022/06/03 09:31:38;;;;;;;2.42;1.50;;;22.40;68.70;;;;;;5110486;28;20023;-57
2022/06/03 09:34:07;;;;;;;6.07;1.70;;;22.40;68.30;;;;;;5110179;28;20072;-57
2022/06/03 09:36:33;;;;;;;2.90;1.50;;;22.60;70.60;;;;;;5110624;28;20109;-57
2022/06/03 09:39:05;;;;;;;2.85;1.40;;;22.50;64.20;;;;;;5110086;28;20048;-57
2022/06/03 09:41:36;;;;;;;4.72;1.83;;;22.40;63.60;;;;;;5110549;28;20080;-57
2022/06/03 09:44:03;;;;;;;3.45;1.55;;;22.50;65.10;;;;;;5096186;28;20028;-57
2022/06/03 09:46:31;;;;;;;6.38;1.85;;;22.80;70.50;;;;;;5089842;28;20024;-57
2022/06/03 09:48:58;;;;;;;4.18;1.45;;;23.00;64.70;;;;;;5089542;28;20051;-57
2022/06/03 09:54:21;;;;;;;3.10;1.48;;;22.80;64.40;;;;;;5089869;28;20437;-57
2022/06/03 09:56:50;;;;;;;1.92;1.42;;;23.30;70.90;;;;;;5089563;28;20032;-57
2022/06/03 09:59:21;;;;;;;4.45;1.77;;;23.50;68.90;;;;;;5089579;28;20067;-58
2022/06/03 10:01:49;;;;;;;3.45;1.52;;;23.50;67.20;;;;;;5089814;28;20028;-57
2022/06/03 10:04:16;;;;;;;2.53;1.60;;;23.30;58.40;;;;;;5089485;28;20028;-57
2022/06/03 10:06:48;;;;;;;;;;;22.90;59.80;;;;;;5090070;28;20432;-57
2022/06/03 10:17:54;;;;;;;5.38;2.05;;;24.00;64.40;;;;;;5093852;28;20039;-57
2022/06/03 10:20:20;;;;;;;3.22;2.17;;;24.30;64.00;;;;;;5093685;28;20020;-55
2022/06/03 10:22:48;;;;;;;3.22;1.70;;;24.40;59.10;;;;;;5096073;28;20063;-56
2022/06/03 10:25:14;;;;;;;3.97;2.05;;;24.30;60.30;;;;;;5103326;28;20884;-57
2022/06/03 10:27:40;;;;;;;4.32;1.70;;;24.00;59.40;;;;;;5101972;28;20047;-57
2022/06/03 10:30:08;;;;;;;4.68;1.60;;;23.80;58.20;;;;;;5104108;28;20011;-56
2022/06/03 10:32:35;;;;;;;15.48;4.18;;;23.80;57.90;;;;;;5103123;28;20026;-58
2022/06/03 10:35:13;;;;;;;;;;;24.30;65.50;;;;;;5098152;28;20532;-57
2022/06/03 10:37:50;;;;;;;3.22;1.30;;;24.40;60.00;;;;;;5091943;28;19940;-57
2022/06/03 10:40:17;;;;;;;3.13;2.00;;;24.40;58.10;;;;;;5091328;28;20038;-57
2022/06/03 10:42:48;;;;;;;4.90;2.47;;;24.70;61.70;;;;;;5091542;28;20028;-57
2022/06/03 10:45:15;;;;;;;20.95;4.30;;;25.00;60.70;;;;;;5092004;28;20028;-57
2022/06/03 10:47:43;;;;;;;2.15;1.65;;;24.90;59.00;;;;;;5091748;28;20039;-57
2022/06/03 10:50:12;;;;;;;4.65;1.67;;;25.20;65.70;;;;;;5091941;28;20040;-57
2022/06/03 11:01:41;;;;;;;6.32;2.53;;;25.10;55.90;;;;;;5092980;28;20117;-57
2022/06/03 11:04:22;;;;;;;5.90;1.73;;;24.90;55.10;;;;;;5079281;28;20040;-57
2022/06/03 11:06:47;;;;;;;2.58;1.30;;;25.00;57.40;;;;;;5092669;28;20036;-57
2022/06/03 11:09:15;;;;;;;2.28;1.42;;;25.40;60.90;;;;;;5092333;28;20626;-57
2022/06/03 11:12:02;;;;;;;4.28;1.58;;;25.70;59.10;;;;;;5092675;28;20028;-57
2022/06/03 11:14:40;;;;;;;3.65;1.90;;;26.00;55.60;;;;;;5091227;28;20497;-57
2022/06/03 11:17:19;;;;;;;2.97;1.60;;;25.30;53.30;;;;;;5091676;28;20028;-57
2022/06/03 11:19:52;;;;;;;22.00;3.47;;;25.40;54.60;;;;;;5092197;28;20414;-56
2022/06/03 11:22:28;;;;;;;2.53;1.60;;;25.70;56.90;;;;;;5091882;28;20045;-57
2022/06/03 11:25:26;;;;;;;4.63;1.98;;;25.70;56.00;;;;;;5091751;28;20032;-56
2022/06/03 11:28:01;;;;;;;2.28;1.55;;;25.30;53.60;;;;;;5090814;28;20039;-57
2022/06/03 11:30:44;;;;;;;5.75;1.98;;;25.70;56.60;;;;;;5077101;28;20388;-57
2022/06/03 11:33:24;;;;;;;3.63;1.70;;;26.00;53.40;;;;;;5069841;28;20476;-58
2022/06/03 11:36:04;;;;;;;5.38;1.75;;;25.90;55.90;;;;;;5077541;28;20023;-57
2022/06/03 11:38:49;;;;;;;2.78;1.35;;;26.20;57.80;;;;;;5090404;28;20059;-58
2022/06/03 11:41:26;;;;;;;7.63;2.38;;;26.40;52.80;;;;;;5090465;28;20027;-58
2022/06/03 11:44:08;;;;;;;4.82;1.63;;;26.60;57.10;;;;;;5092213;28;20627;-58
2022/06/03 11:46:56;;;;;;;29.17;2.83;;;26.60;55.80;;;;;;5091952;28;20035;-57
2022/06/03 11:49:23;;;;;;;3.25;1.70;;;26.60;53.00;;;;;;5090949;28;20071;-58
2022/06/03 11:51:49;;;;;;;8.55;1.73;;;26.70;54.50;;;;;;5091404;28;20028;-58
2022/06/03 11:54:18;;;;;;;2.33;1.35;;;26.80;53.60;;;;;;5089950;28;20502;-58
2022/06/03 11:56:46;;;;;;;2.58;1.42;;;26.90;55.70;;;;;;5091007;28;20487;-58
2022/06/03 11:59:22;;;;;;;4.47;1.58;;;27.00;52.70;;;;;;5091166;28;20085;-57
2022/06/03 12:01:51;;;;;;;3.55;1.48;;;27.10;49.80;;;;;;5091183;28;20024;-57
2022/06/03 12:04:34;;;;;;;4.03;1.52;;;27.00;49.60;;;;;;5091179;28;20116;-58
2022/06/03 12:07:18;;;;;;;4.72;1.38;;;26.30;49.20;;;;;;5091238;28;20463;-58
2022/06/03 12:09:45;;;;;;;5.20;1.70;;;26.40;47.30;;;;;;5091627;28;20035;-57
2022/06/03 12:15:30;;;;;;;5.88;2.03;;;26.90;54.30;;;;;;5089775;28;20386;-58
2022/06/03 12:18:17;;;;;;;4.43;1.25;;;27.30;53.30;;;;;;5091565;28;20028;-58
2022/06/03 12:20:47;;;;;;;3.20;1.42;;;27.50;48.00;;;;;;5063367;28;20032;-58
2022/06/03 12:23:12;;;;;;;3.13;1.27;;;27.50;51.80;;;;;;5076870;28;20028;-56
2022/06/03 12:25:46;;;;;;;4.13;1.48;;;27.40;48.90;;;;;;5091332;28;20022;-57
2022/06/03 12:28:17;;;;;;;3.25;1.63;;;27.40;49.30;;;;;;5090877;28;20032;-58
2022/06/03 12:30:53;;;;;;;7.45;1.80;;;27.40;53.80;;;;;;5090778;28;20536;-57
2022/06/03 12:33:34;;;;;;;3.58;1.33;;;27.00;47.20;;;;;;5090112;28;20123;-58
2022/06/03 12:36:06;;;;;;;3.63;2.03;;;27.00;49.10;;;;;;5082557;28;20066;-58
2022/06/03 12:39:09;;;;;;;3.08;1.38;;;27.00;49.80;;;;;;5069968;28;20052;-58
2022/06/03 12:41:44;;;;;;;4.32;1.38;;;26.80;50.20;;;;;;5066508;28;20454;-57
2022/06/03 12:44:41;;;;;;;2.28;1.58;;;27.00;47.10;;;;;;5070807;28;20028;-57
2022/06/03 12:47:36;;;;;;;3.97;1.80;;;26.60;48.10;;;;;;5070730;28;20047;-58
2022/06/03 12:50:04;;;;;;;3.15;1.42;;;26.70;49.00;;;;;;5069240;28;20047;-58
2022/06/03 12:52:30;;;;;;;3.20;1.35;;;26.90;47.40;;;;;;5070274;28;20020;-57
2022/06/03 12:55:01;;;;;;;5.93;1.60;;;27.00;48.10;;;;;;5070190;28;20031;-58
2022/06/03 12:57:59;;;;;;;2.78;1.50;;;27.10;48.70;;;;;;5070261;28;20521;-58
2022/06/03 13:00:25;;;;;;;3.17;1.70;;;26.90;47.60;;;;;;5059000;28;20473;-58
2022/06/03 13:02:53;;;;;;;9.55;1.83;;;27.10;47.50;;;;;;5070215;28;20012;-57
2022/06/03 13:05:46;;;;;;;5.28;1.65;;;27.10;47.10;;;;;;5070053;28;20476;-56
2022/06/03 13:08:27;;;;;;;8.10;2.15;;;27.00;46.40;;;;;;5070124;28;20059;-57
2022/06/03 13:11:16;;;;;;;3.08;1.42;;;27.10;47.10;;;;;;5070032;28;20074;-57
2022/06/03 13:14:07;;;;;;;54.55;14.73;;;26.90;46.70;;;;;;5070290;28;20025;-57
2022/06/03 13:16:35;;;;;;;5.15;2.17;;;27.00;51.10;;;;;;5062317;28;20029;-57
2022/06/03 13:19:19;;;;;;;10.98;3.13;;;27.20;46.60;;;;;;5069953;28;20043;-57
2022/06/03 13:21:57;;;;;;;3.20;1.38;;;27.70;50.40;;;;;;5069899;28;20050;-57
2022/06/03 13:25:03;;;;;;;3.38;1.67;;;27.70;46.40;;;;;;5069887;28;20028;-57
2022/06/03 13:27:30;;;;;;;3.25;1.50;;;27.70;48.80;;;;;;5069575;28;20035;-58
2022/06/03 13:29:56;;;;;;;5.28;1.35;;;27.80;48.20;;;;;;5068574;28;20768;-58
2022/06/03 13:32:36;;;;;;;1.88;1.20;;;27.80;48.00;;;;;;5070044;28;20523;-58
2022/06/03 13:35:21;;;;;;;3.25;1.70;;;27.70;46.60;;;;;;5070038;28;20028;-57
2022/06/03 13:38:11;;;;;;;7.60;1.40;;;27.40;46.20;;;;;;5069717;28;20373;-58
2022/06/03 13:40:38;;;;;;;7.43;1.67;;;27.50;47.80;;;;;;5069603;28;20039;-58
2022/06/03 13:43:09;;;;;;;10.75;1.92;;;27.90;48.70;;;;;;5069934;28;20037;-58
2022/06/03 13:45:46;;;;;;;8.88;1.85;;;28.10;49.10;;;;;;5073508;28;20484;-58
2022/06/03 13:48:20;;;;;;;11.30;1.50;;;28.40;51.00;;;;;;5073833;28;20483;-58
2022/06/03 13:50:46;;;;;;;3.45;1.58;;;28.30;46.30;;;;;;5074118;28;20325;-57
2022/06/03 13:53:21;;;;;;;2.55;1.63;;;28.80;49.70;;;;;;5074196;28;20468;-57
2022/06/03 13:55:55;;;;;;;6.30;1.55;;;28.90;49.90;;;;;;5074018;28;20058;-58
2022/06/03 13:58:44;;;;;;;2.60;1.65;;;29.00;51.80;;;;;;5073618;28;20029;-58
2022/06/03 14:01:40;;;;;;;2.42;1.42;;;29.10;50.00;;;;;;5073273;28;20025;-58
2022/06/03 14:04:22;;;;;;;3.83;1.65;;;29.10;49.90;;;;;;5073631;28;20032;-58
2022/06/03 14:07:13;;;;;;;4.05;1.73;;;28.90;48.70;;;;;;5073672;28;20036;-58
2022/06/03 14:09:49;;;;;;;3.67;1.40;;;28.60;47.60;;;;;;5073037;28;20056;-58
2022/06/03 14:12:29;;;;;;;2.22;1.38;;;28.20;48.80;;;;;;5073218;28;20104;-58
2022/06/03 14:15:18;;;;;;;8.15;1.65;;;28.30;49.40;;;;;;5080345;28;20024;-58
2022/06/03 14:17:46;;;;;;;3.08;1.90;;;27.30;47.60;;;;;;5093656;28;20027;-57
2022/06/03 14:20:40;;;;;;;10.00;2.10;;;27.80;47.90;;;;;;5093593;28;20028;-57
2022/06/03 14:23:15;;;;;;;6.20;1.90;;;28.40;48.70;;;;;;5092772;28;20384;-57
2022/06/03 14:25:58;;;;;;;14.95;2.80;;;27.70;47.70;;;;;;5093286;28;20028;-58